Time;durP1;ratioP1;P1;durP2;ratioP2;P2;SDS_P1;SDS_P2;PMS_P1;PMS_P2;Temp;Humidity;BMP_temperature;BMP_pressure;BME280_temperature;BME280_humidity;BME280_pressure;Samples;Min_cycle;Max_cycle;Signal;HPM_P1;HPM_P2
2023/09/24 00:00:48;;;;;;;;;;;25.00;99.90;;;;;;5028234;28;20398;-50
2023/09/24 00:03:14;;;;;;;;;;;25.00;99.90;;;;;;5031680;28;19909;-50
2023/09/24 00:05:41;;;;;;;;;;;24.90;99.90;;;;;;5031286;28;19916;-49
2023/09/24 00:08:07;;;;;;;;;;;24.90;99.90;;;;;;5031372;28;19913;-50
2023/09/24 00:10:32;;;;;;;;;;;24.90;99.90;;;;;;5012876;28;19905;-49
2023/09/24 00:12:58;;;;;;;;;;;24.90;99.90;;;;;;5037529;28;20343;-51
2023/09/24 00:15:24;;;;;;;;;;;24.90;99.90;;;;;;5019223;28;20405;-50
2023/09/24 00:17:50;;;;;;;;;;;24.80;99.90;;;;;;5030675;28;19936;-51
2023/09/24 00:20:16;;;;;;;;;;;24.80;99.90;;;;;;5031209;28;20375;-49
2023/09/24 00:22:42;;;;;;;;;;;24.80;99.90;;;;;;5031073;28;19909;-49
2023/09/24 00:25:10;;;;;;;;;;;24.80;99.90;;;;;;5013134;28;20415;-50
2023/09/24 00:27:35;;;;;;;;;;;24.80;99.90;;;;;;5028328;28;20351;-50
2023/09/24 00:30:01;;;;;;;;;;;24.80;99.90;;;;;;5030804;28;19905;-49
2023/09/24 00:32:26;;;;;;;;;;;24.80;99.90;;;;;;5032767;28;19924;-50
2023/09/24 00:34:52;;;;;;;;;;;24.80;99.90;;;;;;5031335;28;20382;-49
2023/09/24 00:37:18;;;;;;;;;;;24.70;99.90;;;;;;5035724;28;19955;-50
2023/09/24 00:39:44;;;;;;;;;;;24.70;99.90;;;;;;5034395;28;19916;-49
2023/09/24 00:42:12;;;;;;;;;;;24.70;99.90;;;;;;5014330;28;19940;-49
2023/09/24 00:44:38;;;;;;;;;;;24.70;99.90;;;;;;5033774;28;19905;-48
2023/09/24 00:47:04;;;;;;;;;;;24.70;99.90;;;;;;5033005;28;19913;-49
2023/09/24 00:49:30;;;;;;;;;;;24.60;99.90;;;;;;5030786;28;20005;-50
2023/09/24 00:51:56;;;;;;;;;;;24.60;99.90;;;;;;5030146;28;20007;-50
2023/09/24 00:54:22;;;;;;;;;;;24.60;99.90;;;;;;5032451;28;20011;-50
2023/09/24 00:56:49;;;;;;;;;;;24.60;99.90;;;;;;5030815;28;20338;-49
2023/09/24 00:59:15;;;;;;;;;;;24.60;99.90;;;;;;5034517;28;20007;-49
2023/09/24 01:01:41;;;;;;;;;;;24.50;99.90;;;;;;5032514;28;19995;-50
2023/09/24 01:04:07;;;;;;;;;;;24.60;99.90;;;;;;5032868;28;19924;-50
2023/09/24 01:06:34;;;;;;;;;;;24.50;99.90;;;;;;5023372;28;20000;-50
2023/09/24 01:09:00;;;;;;;;;;;24.50;99.90;;;;;;5033191;28;19905;-50
2023/09/24 01:11:27;;;;;;;;;;;24.50;99.90;;;;;;5033841;28;19913;-50
2023/09/24 01:13:52;;;;;;;;;;;24.50;99.90;;;;;;5035949;28;19905;-50
2023/09/24 01:16:18;;;;;;;;;;;24.50;99.90;;;;;;5032155;28;19934;-50
2023/09/24 01:18:44;;;;;;;;;;;24.50;99.90;;;;;;5031787;28;20514;-50
2023/09/24 01:21:15;;;;;;;;;;;24.50;99.90;;;;;;5036209;28;19905;-50
2023/09/24 01:23:42;;;;;;;;;;;24.50;99.90;;;;;;5034383;28;19923;-51
2023/09/24 01:26:09;;;;;;;;;;;24.50;99.90;;;;;;5027978;28;19920;-50
2023/09/24 01:28:35;;;;;;;;;;;24.50;99.90;;;;;;5026751;28;19909;-50
2023/09/24 01:31:01;;;;;;;;;;;24.50;99.90;;;;;;5007963;28;20397;-50
2023/09/24 01:33:27;;;;;;;;;;;24.50;99.90;;;;;;5029213;28;19905;-50
2023/09/24 01:35:53;;;;;;;;;;;24.60;99.90;;;;;;5029025;28;19915;-50
2023/09/24 01:38:19;;;;;;;;;;;24.60;99.90;;;;;;5020071;28;19909;-49
2023/09/24 01:40:45;;;;;;;;;;;24.70;99.90;;;;;;5013134;28;19905;-49
2023/09/24 01:43:14;;;;;;;;;;;24.70;99.90;;;;;;5009333;28;19905;-50
2023/09/24 01:45:40;;;;;;;;;;;24.70;99.90;;;;;;5022842;28;19956;-49
2023/09/24 01:48:06;;;;;;;;;;;24.80;99.90;;;;;;5013616;28;19905;-50
2023/09/24 01:50:32;;;;;;;;;;;24.80;99.90;;;;;;5030971;28;19959;-49
2023/09/24 01:52:58;;;;;;;;;;;24.80;99.90;;;;;;5032219;28;19948;-49
2023/09/24 01:55:27;;;;;;;;;;;24.90;99.90;;;;;;5020906;28;19962;-50
2023/09/24 01:57:53;;;;;;;;;;;24.90;99.90;;;;;;5022930;28;19920;-49
2023/09/24 02:00:25;;;;;;;;;;;24.90;99.90;;;;;;5032333;28;19909;-50
2023/09/24 02:02:57;;;;;;;;;;;24.90;99.90;;;;;;5031799;28;19917;-50
2023/09/24 02:05:23;;;;;;;;;;;25.00;99.90;;;;;;5031517;28;19967;-50
2023/09/24 02:07:53;;;;;;;;;;;25.00;99.90;;;;;;5031863;28;19905;-50
2023/09/24 02:10:19;;;;;;;;;;;25.00;99.90;;;;;;5031853;28;20575;-50
2023/09/24 02:12:45;;;;;;;;;;;25.00;99.90;;;;;;5015333;28;20015;-49
2023/09/24 02:15:20;;;;;;;;;;;25.00;99.90;;;;;;5033550;28;19905;-52
2023/09/24 02:17:48;;;;;;;;;;;25.00;99.90;;;;;;5033687;28;20398;-50
2023/09/24 02:20:23;;;;;;;;;;;25.00;99.90;;;;;;5033888;28;20434;-49
2023/09/24 02:22:50;;;;;;;;;;;25.00;99.90;;;;;;5033469;28;20375;-50
2023/09/24 02:25:16;;;;;;;;;;;25.00;99.90;;;;;;5033657;28;19909;-49
2023/09/24 02:27:42;;;;;;;;;;;25.00;99.90;;;;;;5016014;28;19959;-50
2023/09/24 02:30:12;;;;;;;;;;;25.00;99.90;;;;;;5033441;28;19909;-50
2023/09/24 02:32:40;;;;;;;;;;;25.00;99.90;;;;;;5033570;28;19909;-50
2023/09/24 02:35:11;;;;;;;;;;;25.00;99.90;;;;;;5033317;28;19912;-50
2023/09/24 02:37:40;;;;;;;;;;;25.00;99.90;;;;;;5033549;28;19959;-49
2023/09/24 02:40:08;;;;;;;;;;;25.00;99.90;;;;;;5033228;28;19963;-49
2023/09/24 02:42:34;;;;;;;;;;;25.00;99.90;;;;;;5015439;28;19905;-50
2023/09/24 02:44:59;;;;;;;;;;;25.00;99.90;;;;;;5033117;28;19905;-50
2023/09/24 02:47:25;;;;;;;;;;;25.00;99.90;;;;;;5033218;28;20377;-50
2023/09/24 02:49:51;;;;;;;;;;;25.00;99.90;;;;;;5033027;28;19952;-49
2023/09/24 02:52:16;;;;;;;;;;;25.00;99.90;;;;;;5033071;28;19984;-50
2023/09/24 02:54:42;;;;;;;;;;;25.00;99.90;;;;;;5015497;28;19905;-49
2023/09/24 02:57:08;;;;;;;;;;;25.00;99.90;;;;;;5032896;28;19905;-50
2023/09/24 02:59:34;;;;;;;;;;;25.00;99.90;;;;;;5032888;28;19960;-49
2023/09/24 03:02:00;;;;;;;;;;;25.00;99.90;;;;;;5015473;28;20437;-50
2023/09/24 03:04:26;;;;;;;;;;;25.00;99.90;;;;;;5015288;28;19905;-49
2023/09/24 03:06:52;;;;;;;;;;;25.00;99.90;;;;;;5032838;28;19913;-49
2023/09/24 03:09:18;;;;;;;;;;;25.00;99.90;;;;;;5032895;28;19905;-49
2023/09/24 03:11:44;;;;;;;;;;;25.00;99.90;;;;;;5032709;28;19905;-49
2023/09/24 03:14:09;;;;;;;;;;;25.00;99.90;;;;;;5032531;28;20515;-50
2023/09/24 03:16:35;;;;;;;;;;;25.00;99.90;;;;;;5032141;28;19906;-49
2023/09/24 03:19:01;;;;;;;;;;;25.00;99.90;;;;;;5032534;28;19913;-50
2023/09/24 03:21:26;;;;;;;;;;;25.00;99.90;;;;;;5032724;28;19905;-50
2023/09/24 03:23:52;;;;;;;;;;;25.00;99.90;;;;;;5032616;28;19905;-50
2023/09/24 03:26:19;;;;;;;;;;;25.00;99.90;;;;;;5032646;28;19966;-50
2023/09/24 03:28:45;;;;;;;;;;;25.00;99.90;;;;;;5032467;28;19905;-50
2023/09/24 03:31:14;;;;;;;;;;;25.00;99.90;;;;;;5032408;28;19919;-50
2023/09/24 03:33:40;;;;;;;;;;;24.90;99.90;;;;;;5018903;28;19952;-49
2023/09/24 03:36:10;;;;;;;;;;;24.90;99.90;;;;;;5032460;28;19998;-50
2023/09/24 03:38:36;;;;;;;;;;;24.90;99.90;;;;;;5032211;28;19909;-50
2023/09/24 03:41:01;;;;;;;;;;;24.90;99.90;;;;;;5032373;28;20384;-49
2023/09/24 03:43:27;;;;;;;;;;;24.90;99.90;;;;;;5032208;28;19913;-49
2023/09/24 03:45:53;;;;;;;;;;;24.90;99.90;;;;;;5014624;28;19905;-50
2023/09/24 03:48:19;;;;;;;;;;;24.90;99.90;;;;;;5032341;28;19904;-50
2023/09/24 03:50:45;;;;;;;;;;;24.90;99.90;;;;;;5032293;28;19905;-50
2023/09/24 03:53:10;;;;;;;;;;;24.90;99.90;;;;;;5032170;28;20478;-50
2023/09/24 03:55:37;;;;;;;;;;;24.90;99.90;;;;;;5032114;28;19909;-50
2023/09/24 03:58:05;;;;;;;;;;;24.90;99.90;;;;;;5031935;28;20339;-50
2023/09/24 04:00:31;;;;;;;;;;;24.90;99.90;;;;;;5031823;28;19978;-50
2023/09/24 04:02:58;;;;;;;;;;;24.90;99.90;;;;;;5032139;28;19999;-51
2023/09/24 04:05:23;;;;;;;;;;;24.90;99.90;;;;;;5032062;28;20070;-50
2023/09/24 04:07:50;;;;;;;;;;;24.90;99.90;;;;;;5032243;28;20383;-50
2023/09/24 04:10:16;;;;;;;;;;;24.80;99.90;;;;;;5031970;28;19912;-50
2023/09/24 04:12:43;;;;;;;;;;;24.90;99.90;;;;;;5031945;28;19959;-50
2023/09/24 04:15:08;;;;;;;;;;;24.80;99.90;;;;;;5031977;28;19916;-51
2023/09/24 04:17:36;;;;;;;;;;;24.80;99.90;;;;;;5031824;28;19905;-50
2023/09/24 04:20:03;;;;;;;;;;;24.80;99.90;;;;;;5031708;28;19979;-50
2023/09/24 04:22:29;;;;;;;;;;;24.80;99.90;;;;;;5031847;28;19912;-50
2023/09/24 04:24:54;;;;;;;;;;;24.80;99.90;;;;;;5031815;28;19905;-50
2023/09/24 04:27:23;;;;;;;;;;;24.80;99.90;;;;;;5032563;28;19913;-50
2023/09/24 04:29:49;;;;;;;;;;;24.80;99.90;;;;;;5018075;28;19905;-51
2023/09/24 04:32:15;;;;;;;;;;;24.80;99.90;;;;;;5035774;28;20359;-51
2023/09/24 04:34:41;;;;;;;;;;;24.80;99.90;;;;;;5035584;28;20383;-51
2023/09/24 04:37:07;;;;;;;;;;;24.80;99.90;;;;;;5035668;28;19933;-50
2023/09/24 04:39:32;;;;;;;;;;;24.70;99.90;;;;;;5035554;28;19921;-51
2023/09/24 04:41:58;;;;;;;;;;;24.80;99.90;;;;;;5035367;28;20023;-51
2023/09/24 04:44:24;;;;;;;;;;;24.70;99.90;;;;;;5035703;28;20344;-51
2023/09/24 04:46:51;;;;;;;;;;;24.70;99.90;;;;;;5035551;28;19996;-51
2023/09/24 04:49:17;;;;;;;;;;;24.70;99.90;;;;;;5035528;28;20699;-51
2023/09/24 04:51:42;;;;;;;;;;;24.70;99.90;;;;;;5035302;28;20278;-50
2023/09/24 04:54:08;;;;;;;;;;;24.70;99.90;;;;;;5035217;28;20007;-51
2023/09/24 04:56:33;;;;;;;;;;;24.70;99.90;;;;;;5035393;28;19904;-51
2023/09/24 04:58:59;;;;;;;;;;;24.70;99.90;;;;;;5034930;28;20012;-51
2023/09/24 05:01:25;;;;;;;;;;;24.70;99.90;;;;;;5025836;28;20000;-50
2023/09/24 05:03:50;;;;;;;;;;;24.70;99.90;;;;;;5013151;28;20327;-50
2023/09/24 05:06:17;;;;;;;;;;;24.70;99.90;;;;;;5033359;28;19943;-51
2023/09/24 05:08:43;;;;;;;;;;;24.70;99.90;;;;;;5015494;28;20271;-50
2023/09/24 05:11:12;;;;;;;;;;;24.70;99.90;;;;;;5034495;28;19911;-51
2023/09/24 05:13:38;;;;;;;;;;;24.70;99.90;;;;;;5034822;28;19912;-51
2023/09/24 05:16:03;;;;;;;;;;;24.60;99.90;;;;;;5034873;28;19905;-50
2023/09/24 05:18:29;;;;;;;;;;;24.60;99.90;;;;;;5034700;28;19913;-50
2023/09/24 05:20:55;;;;;;;;;;;24.60;99.90;;;;;;5034695;28;19908;-50
2023/09/24 05:23:21;;;;;;;;;;;24.60;99.90;;;;;;5034852;28;19988;-50
2023/09/24 05:25:47;;;;;;;;;;;24.60;99.90;;;;;;5034605;28;19913;-51
2023/09/24 05:28:14;;;;;;;;;;;24.60;99.90;;;;;;5034630;28;20003;-51
2023/09/24 05:30:39;;;;;;;;;;;24.60;99.90;;;;;;5034804;28;19912;-51
2023/09/24 05:33:06;;;;;;;;;;;24.50;99.90;;;;;;5034575;28;20419;-50
2023/09/24 05:35:32;;;;;;;;;;;24.50;99.90;;;;;;5034548;28;19908;-51
2023/09/24 05:37:57;;;;;;;;;;;24.50;99.90;;;;;;5034563;28;19927;-50
2023/09/24 05:40:23;;;;;;;;;;;24.50;99.90;;;;;;5016200;28;19904;-51
2023/09/24 05:42:48;;;;;;;;;;;24.50;99.90;;;;;;5034517;28;19905;-51
2023/09/24 05:45:14;;;;;;;;;;;24.50;99.90;;;;;;5034281;28;19905;-51
2023/09/24 05:47:41;;;;;;;;;;;24.50;99.90;;;;;;5034364;28;20279;-50
2023/09/24 05:50:06;;;;;;;;;;;24.50;99.90;;;;;;5034271;28;20341;-50
2023/09/24 05:52:32;;;;;;;;;;;24.50;99.90;;;;;;5034386;28;19955;-51
2023/09/24 05:54:58;;;;;;;;;;;24.50;99.90;;;;;;5034515;28;19959;-50
2023/09/24 05:57:27;;;;;;;;;;;24.50;99.90;;;;;;5034303;28;19963;-51
2023/09/24 05:59:53;;;;;;;;;;;24.50;99.90;;;;;;5016691;28;20363;-50
2023/09/24 06:02:22;;;;;;;;;;;24.40;99.90;;;;;;5033778;28;19940;-51
2023/09/24 06:04:49;;;;;;;;;;;24.50;99.90;;;;;;5034069;28;19905;-51
2023/09/24 06:07:14;;;;;;;;;;;24.50;99.90;;;;;;5016137;28;19905;-51
2023/09/24 06:09:40;;;;;;;;;;;24.50;99.90;;;;;;5033977;28;19905;-51
2023/09/24 06:12:06;;;;;;;;;;;24.40;99.90;;;;;;5033864;28;20275;-51
2023/09/24 06:14:31;;;;;;;;;;;24.40;99.90;;;;;;5033976;28;19909;-50
2023/09/24 06:16:58;;;;;;;;;;;24.50;99.90;;;;;;5016102;28;20429;-51
2023/09/24 06:19:23;;;;;;;;;;;24.40;99.90;;;;;;5033844;28;20119;-50
2023/09/24 06:21:50;;;;;;;;;;;24.40;99.90;;;;;;5033758;28;20003;-50
2023/09/24 06:24:16;;;;;;;;;;;24.40;99.90;;;;;;5033614;28;19920;-51
2023/09/24 06:26:42;;;;;;;;;;;24.40;99.90;;;;;;5033533;28;19905;-51
2023/09/24 06:29:08;;;;;;;;;;;24.40;99.90;;;;;;5033637;28;19916;-51
2023/09/24 06:31:34;;;;;;;;;;;24.40;99.90;;;;;;5033380;28;19905;-50
2023/09/24 06:34:00;;;;;;;;;;;24.40;99.90;;;;;;5033547;28;19905;-51
2023/09/24 06:36:26;;;;;;;;;;;24.40;99.90;;;;;;5033643;28;20341;-51
2023/09/24 06:38:51;;;;;;;;;;;24.40;99.90;;;;;;5033472;28;20015;-51
2023/09/24 06:41:17;;;;;;;;;;;24.40;99.90;;;;;;5033371;28;20067;-51
2023/09/24 06:43:43;;;;;;;;;;;24.50;99.90;;;;;;5033317;28;20267;-51
2023/09/24 06:46:08;;;;;;;;;;;24.50;99.90;;;;;;5033338;28;19905;-51
2023/09/24 06:48:34;;;;;;;;;;;24.50;99.90;;;;;;5033171;28;19912;-51
2023/09/24 06:51:07;;;;;;;;;;;24.50;99.90;;;;;;5014796;28;19927;-50
2023/09/24 06:53:32;;;;;;;;;;;24.50;99.90;;;;;;5033211;28;19912;-51
2023/09/24 06:55:58;;;;;;;;;;;24.50;99.90;;;;;;5033318;28;19905;-50
2023/09/24 06:58:23;;;;;;;;;;;24.50;99.90;;;;;;5033240;28;19913;-51
2023/09/24 07:00:49;;;;;;;;;;;24.60;99.90;;;;;;5032823;28;20359;-51
2023/09/24 07:03:15;;;;;;;;;;;24.60;99.90;;;;;;5033032;28;19958;-51
2023/09/24 07:05:41;;;;;;;;;;;24.60;99.90;;;;;;5032674;28;19932;-51
2023/09/24 07:08:07;;;;;;;;;;;24.70;99.90;;;;;;5032924;28;19906;-51
2023/09/24 07:10:33;;;;;;;;;;;24.70;99.90;;;;;;5032840;28;19905;-51
2023/09/24 07:12:58;;;;;;;;;;;24.70;99.90;;;;;;5032788;28;19909;-51
2023/09/24 07:15:24;;;;;;;;;;;24.70;99.90;;;;;;5033116;28;19909;-52
2023/09/24 07:17:50;;;;;;;;;;;24.80;99.90;;;;;;5032564;28;20313;-51
2023/09/24 07:20:16;;;;;;;;;;;24.80;99.90;;;;;;5032476;28;20267;-50
2023/09/24 07:22:41;;;;;;;;;;;24.80;99.90;;;;;;5032542;28;19947;-51
2023/09/24 07:25:07;;;;;;;;;;;24.90;99.90;;;;;;5032550;28;19927;-51
2023/09/24 07:27:33;;;;;;;;;;;25.00;99.90;;;;;;5032923;28;20263;-51
2023/09/24 07:29:59;;;;;;;;;;;25.00;99.90;;;;;;5032424;28;19912;-51
2023/09/24 07:32:24;;;;;;;;;;;25.10;99.90;;;;;;5032703;28;20363;-51
2023/09/24 07:34:50;;;;;;;;;;;25.10;99.90;;;;;;5032289;28;19905;-51
2023/09/24 07:37:16;;;;;;;;;;;25.20;99.90;;;;;;5032483;28;19912;-51
2023/09/24 07:39:42;;;;;;;;;;;25.20;99.90;;;;;;5032407;28;19917;-52
2023/09/24 07:42:07;;;;;;;;;;;25.30;99.90;;;;;;5032360;28;19905;-51
2023/09/24 07:44:33;;;;;;;;;;;25.30;99.90;;;;;;5032457;28;19905;-51
2023/09/24 07:46:59;;;;;;;;;;;25.40;99.90;;;;;;5032189;28;19960;-51
2023/09/24 07:49:24;;;;;;;;;;;25.40;99.90;;;;;;5032681;28;20351;-51
2023/09/24 07:51:50;;;;;;;;;;;25.50;99.90;;;;;;5029632;28;20352;-51
2023/09/24 07:54:16;;;;;;;;;;;25.50;99.90;;;;;;5022383;28;20028;-51
2023/09/24 07:56:42;;;;;;;;;;;25.50;99.90;;;;;;5011995;28;19913;-51
2023/09/24 07:59:11;;;;;;;;;;;25.60;99.90;;;;;;5017860;28;19968;-51
2023/09/24 08:01:37;;;;;;;;;;;25.60;99.90;;;;;;5032015;28;20016;-51
2023/09/24 08:04:03;;;;;;;;;;;25.70;99.90;;;;;;5030265;28;19948;-51
2023/09/24 08:06:29;;;;;;;;;;;25.80;99.90;;;;;;5035254;28;19916;-51
2023/09/24 08:08:55;;;;;;;;;;;25.80;99.90;;;;;;5029442;28;19910;-50
2023/09/24 08:11:22;;;;;;;;;;;25.80;99.90;;;;;;5036847;28;20287;-50
2023/09/24 08:13:47;;;;;;;;;;;25.90;99.90;;;;;;5025644;28;20328;-50
2023/09/24 08:16:13;;;;;;;;;;;25.90;99.90;;;;;;5018792;28;20003;-50
2023/09/24 08:18:40;;;;;;;;;;;25.90;99.90;;;;;;5022675;28;20012;-50
2023/09/24 08:21:05;;;;;;;;;;;26.00;99.90;;;;;;5026149;28;19916;-50
2023/09/24 08:23:31;;;;;;;;;;;26.00;99.90;;;;;;5018898;28;19906;-50
2023/09/24 08:25:57;;;;;;;;;;;26.10;99.90;;;;;;5035276;28;20279;-49
2023/09/24 08:28:22;;;;;;;;;;;26.10;99.90;;;;;;5030146;28;20290;-48
2023/09/24 08:30:48;;;;;;;;;;;26.20;99.90;;;;;;5033780;28;19908;-49
2023/09/24 08:33:14;;;;;;;;;;;26.20;99.90;;;;;;5039321;28;20862;-48
2023/09/24 08:35:39;;;;;;;;;;;26.30;99.90;;;;;;5037290;28;19975;-49
2023/09/24 08:38:05;;;;;;;;;;;26.30;99.90;;;;;;5033679;28;19916;-50
2023/09/24 08:40:31;;;;;;;;;;;26.40;99.90;;;;;;5020286;28;19917;-50
2023/09/24 08:42:57;;;;;;;;;;;26.40;99.90;;;;;;5033446;28;19959;-50
2023/09/24 08:45:26;;;;;;;;;;;26.50;99.90;;;;;;5034245;28;19913;-49
2023/09/24 08:47:52;;;;;;;;;;;26.50;99.90;;;;;;5034286;28;19913;-50
2023/09/24 08:50:18;;;;;;;;;;;26.50;99.90;;;;;;5044283;28;19982;-50
2023/09/24 08:52:44;;;;;;;;;;;26.60;99.90;;;;;;5037498;28;19905;-49
2023/09/24 08:55:11;;;;;;;;;;;26.70;99.90;;;;;;5032803;28;19913;-50
2023/09/24 08:57:37;;;;;;;;;;;26.70;99.90;;;;;;5041779;28;20395;-49
2023/09/24 09:00:06;;;;;;;;;;;26.80;99.90;;;;;;5032297;28;19913;-49
2023/09/24 09:02:32;;;;;;;;;;;26.80;99.90;;;;;;5038544;28;20499;-50
2023/09/24 09:04:58;;;;;;;;;;;26.80;99.90;;;;;;5036746;28;19905;-49
2023/09/24 09:07:23;;;;;;;;;;;26.90;99.90;;;;;;5034861;28;19952;-50
2023/09/24 09:09:54;;;;;;;;;;;27.00;99.90;;;;;;5032424;28;19909;-50
2023/09/24 09:12:20;;;;;;;;;;;27.00;99.90;;;;;;5035232;28;20403;-50
2023/09/24 09:14:46;;;;;;;;;;;27.00;99.90;;;;;;5040805;28;20007;-49
2023/09/24 09:17:11;;;;;;;;;;;27.00;99.90;;;;;;5031519;28;20366;-49
2023/09/24 09:19:55;;;;;;;;;;;27.10;99.90;;;;;;5037230;28;20295;-50
2023/09/24 09:22:24;;;;;;;;;;;27.20;99.90;;;;;;5031057;28;19919;-50
2023/09/24 09:25:06;;;;;;;;;;;27.20;99.90;;;;;;5031204;28;19936;-50
2023/09/24 09:27:43;;;;;;;;;;;27.30;99.90;;;;;;5016270;28;20008;-49
2023/09/24 09:30:16;;;;;;;;;;;27.30;99.90;;;;;;5033606;28;19920;-49
2023/09/24 09:32:42;;;;;;;;;;;27.30;99.90;;;;;;5038296;28;19934;-50
2023/09/24 09:35:08;;;;;;;;;;;27.40;99.90;;;;;;5033701;28;19909;-50
2023/09/24 09:37:34;;;;;;;;;;;27.40;99.90;;;;;;5042775;28;20318;-49
2023/09/24 09:39:59;;;;;;;;;;;27.50;99.90;;;;;;5041285;28;19917;-50
2023/09/24 09:42:30;;;;;;;;;;;27.50;99.90;;;;;;5036274;28;20007;-50
2023/09/24 09:44:59;;;;;;;;;;;27.60;99.90;;;;;;5030074;28;19905;-50
2023/09/24 09:47:27;;;;;;;;;;;27.60;99.90;;;;;;5033538;28;19908;-50
2023/09/24 09:49:58;;;;;;;;;;;27.70;99.90;;;;;;5042913;28;19909;-49
2023/09/24 09:52:28;;;;;;;;;;;27.70;99.90;;;;;;5033819;28;19940;-49
2023/09/24 09:54:55;;;;;;;;;;;27.80;99.90;;;;;;5030415;28;19916;-49
2023/09/24 09:57:24;;;;;;;;;;;27.90;99.90;;;;;;5030042;28;19966;-49
2023/09/24 09:59:51;;;;;;;;;;;27.90;99.90;;;;;;5035817;28;19921;-51
2023/09/24 10:02:17;;;;;;;;;;;28.00;99.90;;;;;;5030628;28;20510;-49
2023/09/24 10:04:42;;;;;;;;;;;28.00;99.90;;;;;;5031653;28;20000;-50
2023/09/24 10:07:08;;;;;;;;;;;28.10;99.90;;;;;;5032138;28;20365;-51
2023/09/24 10:09:34;;;;;;;;;;;28.20;99.90;;;;;;5037338;28;20374;-50
2023/09/24 10:12:06;;;;;;;;;;;28.20;99.90;;;;;;5032452;28;20027;-50
2023/09/24 10:14:34;;;;;;;;;;;28.20;99.90;;;;;;5030044;28;20028;-48
2023/09/24 10:17:23;;;;;;;;;;;28.30;99.90;;;;;;5030000;28;19909;-49
2023/09/24 10:20:08;;;;;;;;;;;28.30;99.90;;;;;;5024697;28;19913;-51
2023/09/24 10:22:35;;;;;;;;;;;28.30;99.90;;;;;;5032884;28;19916;-50
2023/09/24 10:25:18;;;;;;;;;;;28.40;99.90;;;;;;5030957;28;19950;-49
2023/09/24 10:27:59;;;;;;;;;;;28.40;99.90;;;;;;5038674;28;20278;-50
2023/09/24 10:30:25;;;;;;;;;;;28.40;99.90;;;;;;5012300;28;19954;-50
2023/09/24 10:32:51;;;;;;;;;;;28.50;99.90;;;;;;5031231;28;19913;-51
2023/09/24 10:35:17;;;;;;;;;;;28.50;99.90;;;;;;5014552;28;19920;-50
2023/09/24 10:37:55;;;;;;;;;;;28.50;99.90;;;;;;5032269;28;20012;-50
2023/09/24 10:40:21;;;;;;;;;;;28.60;99.90;;;;;;5043105;28;20371;-51
2023/09/24 10:43:07;;;;;;;;;;;28.60;99.90;;;;;;5032750;28;19924;-50
2023/09/24 10:45:32;;;;;;;;;;;28.70;99.90;;;;;;5032535;28;19916;-50
2023/09/24 10:48:01;;;;;;;;;;;28.80;99.90;;;;;;5014992;28;19966;-50
2023/09/24 10:50:27;;;;;;;;;;;28.80;99.90;;;;;;5031565;28;19904;-50
2023/09/24 10:53:00;;;;;;;;;;;28.90;99.90;;;;;;5032531;28;19905;-51
2023/09/24 10:55:29;;;;;;;;;;;29.00;99.90;;;;;;5037476;28;20408;-50
2023/09/24 10:57:59;;;;;;;;;;;29.00;99.90;;;;;;5038918;28;19909;-50
2023/09/24 11:00:25;;;;;;;;;;;29.10;99.90;;;;;;5028343;28;20343;-51
2023/09/24 11:03:01;;;;;;;;;;;29.20;99.90;;;;;;5027544;28;19956;-50
2023/09/24 11:05:27;;;;;;;;;;;29.20;99.90;;;;;;5028844;28;19982;-50
2023/09/24 11:07:53;;;;;;;;;;;29.20;99.90;;;;;;5029432;28;19905;-50
2023/09/24 11:10:20;;;;;;;;;;;29.30;99.90;;;;;;5013264;28;20379;-50
2023/09/24 11:12:52;;;;;;;;;;;29.30;99.90;;;;;;5029461;28;19909;-51
2023/09/24 11:15:19;;;;;;;;;;;29.40;99.90;;;;;;5033227;28;19909;-50
2023/09/24 11:17:45;;;;;;;;;;;29.50;99.90;;;;;;5031829;28;19959;-51
2023/09/24 11:20:12;;;;;;;;;;;29.50;99.90;;;;;;5031452;28;19913;-50
2023/09/24 11:22:38;;;;;;;;;;;29.60;99.90;;;;;;5035033;28;19953;-50
2023/09/24 11:25:07;;;;;;;;;;;29.70;99.90;;;;;;5042899;28;19940;-50
2023/09/24 11:27:34;;;;;;;;;;;29.80;99.90;;;;;;5038837;28;19967;-50
2023/09/24 11:30:00;;;;;;;;;;;29.80;99.90;;;;;;5031283;28;19912;-50
2023/09/24 11:32:27;;;;;;;;;;;29.90;99.90;;;;;;5031525;28;19996;-50
2023/09/24 11:35:22;;;;;;;;;;;29.90;99.90;;;;;;5031148;28;20374;-50
2023/09/24 11:37:47;;;;;;;;;;;29.90;99.90;;;;;;5019478;28;19913;-50
2023/09/24 11:40:20;;;;;;;;;;;29.90;99.90;;;;;;5033990;28;19916;-50
2023/09/24 11:42:54;;;;;;;;;;;30.00;99.90;;;;;;5034511;28;19916;-51
2023/09/24 11:45:38;;;;;;;;;;;30.00;99.90;;;;;;5029498;28;19913;-50
2023/09/24 11:48:04;;;;;;;;;;;30.00;99.90;;;;;;5029847;28;20292;-52
2023/09/24 11:50:30;;;;;;;;;;;30.10;99.90;;;;;;5030560;28;20274;-50
2023/09/24 11:52:56;;;;;;;;;;;30.10;99.90;;;;;;5031224;28;19909;-51
2023/09/24 11:55:21;;;;;;;;;;;30.20;99.90;;;;;;5034229;28;20375;-51
2023/09/24 11:57:47;;;;;;;;;;;30.20;99.90;;;;;;5031308;28;20338;-51
2023/09/24 12:00:13;;;;;;;;;;;30.20;99.90;;;;;;5030829;28;19921;-51
2023/09/24 12:02:39;;;;;;;;;;;30.20;99.90;;;;;;5031115;28;19917;-49
2023/09/24 12:05:05;;;;;;;;;;;30.30;99.90;;;;;;5019183;28;19909;-49
2023/09/24 12:07:33;;;;;;;;;;;30.30;99.90;;;;;;5031323;28;20299;-51
2023/09/24 12:10:01;;;;;;;;;;;30.30;99.90;;;;;;5040448;28;20366;-52
2023/09/24 12:12:26;;;;;;;;;;;30.30;99.90;;;;;;5030515;28;19959;-52
2023/09/24 12:14:52;;;;;;;;;;;30.40;99.90;;;;;;5038259;28;20375;-50
2023/09/24 12:17:19;;;;;;;;;;;30.40;99.90;;;;;;5013543;28;19905;-50
2023/09/24 12:19:48;;;;;;;;;;;30.40;99.90;;;;;;5030870;28;20288;-50
2023/09/24 12:22:15;;;;;;;;;;;30.50;99.90;;;;;;5030195;28;19909;-50
2023/09/24 12:24:41;;;;;;;;;;;30.40;99.90;;;;;;5042960;28;19905;-51
2023/09/24 12:27:07;;;;;;;;;;;30.50;99.90;;;;;;5030974;28;20051;-50
2023/09/24 12:29:32;;;;;;;;;;;30.50;99.90;;;;;;5030878;28;19913;-49
2023/09/24 12:31:58;;;;;;;;;;;30.50;99.90;;;;;;5030838;28;19912;-50
2023/09/24 12:34:23;;;;;;;;;;;30.60;99.90;;;;;;5030987;28;19921;-50
2023/09/24 12:36:49;;;;;;;;;;;30.50;99.90;;;;;;5030513;28;19905;-50
2023/09/24 12:39:19;;;;;;;;;;;30.50;99.90;;;;;;5030934;28;19913;-50
2023/09/24 12:41:46;;;;;;;;;;;30.50;99.90;;;;;;5033468;28;19913;-50
2023/09/24 12:44:12;;;;;;;;;;;30.60;99.90;;;;;;5030783;28;19933;-50
2023/09/24 12:46:37;;;;;;;;;;;30.60;99.90;;;;;;5041322;28;19905;-50
2023/09/24 12:49:03;;;;;;;;;;;30.60;99.90;;;;;;5013163;28;19927;-50
2023/09/24 12:51:29;;;;;;;;;;;30.70;99.90;;;;;;5016389;28;19944;-50
2023/09/24 12:53:54;;;;;;;;;;;30.70;99.90;;;;;;5016828;28;20397;-50
2023/09/24 12:56:21;;;;;;;;;;;30.70;99.90;;;;;;5043502;28;20013;-50
2023/09/24 12:58:49;;;;;;;;;;;30.70;99.90;;;;;;5037222;28;19913;-50
2023/09/24 13:01:17;;;;;;;;;;;30.80;99.90;;;;;;5036353;28;19917;-49
2023/09/24 13:03:42;;;;;;;;;;;30.80;99.90;;;;;;5033704;28;19913;-51
2023/09/24 13:06:18;;;;;;;;;;;30.80;99.90;;;;;;5034435;28;19958;-50
2023/09/24 13:08:44;;;;;;;;;;;30.80;99.90;;;;;;5034256;28;20259;-50
2023/09/24 13:11:11;;;;;;;;;;;30.80;99.90;;;;;;5049294;28;20455;-50
2023/09/24 13:13:37;;;;;;;;;;;30.70;99.90;;;;;;5040959;28;19909;-50
2023/09/24 13:16:02;;;;;;;;;;;30.70;99.90;;;;;;5033964;28;19928;-49
2023/09/24 13:18:28;;;;;;;;;;;30.70;99.90;;;;;;5035930;28;20343;-50
2023/09/24 13:20:53;;;;;;;;;;;30.70;99.90;;;;;;5034460;28;19950;-49
2023/09/24 13:23:19;;;;;;;;;;;30.70;99.90;;;;;;5043314;28;19919;-50
2023/09/24 13:25:45;;;;;;;;;;;30.70;99.90;;;;;;5033432;28;20279;-51
2023/09/24 13:28:11;;;;;;;;;;;30.70;99.90;;;;;;5036548;28;19912;-49
2023/09/24 13:30:37;;;;;;;;;;;30.80;99.90;;;;;;5025564;28;20371;-49
2023/09/24 13:33:03;;;;;;;;;;;30.70;99.90;;;;;;5031018;28;19921;-49
2023/09/24 13:35:30;;;;;;;;;;;30.70;99.90;;;;;;5014482;28;20270;-49
2023/09/24 13:37:55;;;;;;;;;;;30.80;99.90;;;;;;5029575;28;19909;-48
2023/09/24 13:40:21;;;;;;;;;;;30.80;99.90;;;;;;5038672;28;20019;-49
2023/09/24 13:42:47;;;;;;;;;;;30.80;99.90;;;;;;5030415;28;20259;-48
2023/09/24 13:45:16;;;;;;;;;;;30.80;99.90;;;;;;5035799;28;20361;-50
2023/09/24 13:47:41;;;;;;;;;;;30.80;99.90;;;;;;5031445;28;20388;-49
2023/09/24 13:50:10;;;;;;;;;;;30.80;99.90;;;;;;5036672;28;19904;-49
2023/09/24 13:52:36;;;;;;;;;;;30.80;99.90;;;;;;5029088;28;19959;-49
2023/09/24 13:55:02;;;;;;;;;;;30.80;99.90;;;;;;5015151;28;20135;-49
2023/09/24 13:57:27;;;;;;;;;;;30.80;99.90;;;;;;5034007;28;20126;-50
2023/09/24 13:59:53;;;;;;;;;;;30.80;99.90;;;;;;5030017;28;20359;-49
2023/09/24 14:02:19;;;;;;;;;;;30.80;99.90;;;;;;5027433;28;19931;-49
2023/09/24 14:04:44;;;;;;;;;;;30.90;99.90;;;;;;5030108;28;19913;-49
2023/09/24 14:07:11;;;;;;;;;;;30.80;99.90;;;;;;5030867;28;19916;-51
2023/09/24 14:12:27;;;;;;;;;;;30.90;99.90;;;;;;5030238;28;19924;-50
2023/09/24 14:14:53;;;;;;;;;;;30.80;99.90;;;;;;5036735;28;19958;-49
2023/09/24 14:17:19;;;;;;;;;;;30.70;99.90;;;;;;5036087;28;19908;-49